sensor_id;sensor_type;location;lat;lon;timestamp;pressure;altitude;pressure_sealevel;temperature;humidity
6132;BME280;3097;42.692;23.278;2023-03-04T00:01:50;95038.72;;;7.05;99.76
6132;BME280;3097;42.692;23.278;2023-03-04T00:04:16;95041.28;;;7.18;99.81
6132;BME280;3097;42.692;23.278;2023-03-04T00:06:41;95039.50;;;7.18;99.26
6132;BME280;3097;42.692;23.278;2023-03-04T00:09:07;95039.88;;;7.09;99.86
6132;BME280;3097;42.692;23.278;2023-03-04T00:11:32;95038.13;;;7.16;99.67
6132;BME280;3097;42.692;23.278;2023-03-04T00:13:58;95034.56;;;7.23;99.07
6132;BME280;3097;42.692;23.278;2023-03-04T00:16:24;95037.72;;;7.12;99.44
6132;BME280;3097;42.692;23.278;2023-03-04T00:18:53;95027.06;;;7.09;99.75
6132;BME280;3097;42.692;23.278;2023-03-04T00:21:19;94990.59;;;6.93;99.40
6132;BME280;3097;42.692;23.278;2023-03-04T00:23:44;95027.47;;;7.25;98.87
6132;BME280;3097;42.692;23.278;2023-03-04T00:26:10;95010.53;;;7.11;98.64
6132;BME280;3097;42.692;23.278;2023-03-04T00:28:37;95022.94;;;7.14;99.04
6132;BME280;3097;42.692;23.278;2023-03-04T00:31:05;95000.63;;;6.95;99.55
6132;BME280;3097;42.692;23.278;2023-03-04T00:33:30;95003.81;;;7.10;98.72
6132;BME280;3097;42.692;23.278;2023-03-04T00:35:56;95021.56;;;7.12;99.22
6132;BME280;3097;42.692;23.278;2023-03-04T00:38:21;95019.59;;;7.14;99.14
6132;BME280;3097;42.692;23.278;2023-03-04T00:40:47;95011.31;;;7.18;99.23
6132;BME280;3097;42.692;23.278;2023-03-04T00:43:12;95021.75;;;7.23;99.17
6132;BME280;3097;42.692;23.278;2023-03-04T00:45:39;95016.25;;;7.13;98.79
6132;BME280;3097;42.692;23.278;2023-03-04T00:48:04;94919.41;;;6.63;98.60
6132;BME280;3097;42.692;23.278;2023-03-04T00:50:30;95014.66;;;7.12;98.94
6132;BME280;3097;42.692;23.278;2023-03-04T00:52:55;95009.72;;;7.11;99.04
6132;BME280;3097;42.692;23.278;2023-03-04T00:55:21;95004.41;;;7.06;98.75
6132;BME280;3097;42.692;23.278;2023-03-04T00:57:46;95016.81;;;7.02;98.83
6132;BME280;3097;42.692;23.278;2023-03-04T01:00:12;95008.13;;;6.90;99.03
6132;BME280;3097;42.692;23.278;2023-03-04T01:02:37;95017.22;;;6.99;98.60
6132;BME280;3097;42.692;23.278;2023-03-04T01:05:03;95011.88;;;7.00;98.57
6132;BME280;3097;42.692;23.278;2023-03-04T01:07:29;94997.09;;;6.96;98.64
6132;BME280;3097;42.692;23.278;2023-03-04T01:09:54;95010.91;;;7.02;99.01
6132;BME280;3097;42.692;23.278;2023-03-04T01:12:20;94958.84;;;6.75;98.80
6132;BME280;3097;42.692;23.278;2023-03-04T01:14:45;95014.84;;;7.17;98.57
6132;BME280;3097;42.692;23.278;2023-03-04T01:17:12;95016.44;;;7.12;98.73
6132;BME280;3097;42.692;23.278;2023-03-04T01:19:37;94997.28;;;7.08;98.48
6132;BME280;3097;42.692;23.278;2023-03-04T01:22:02;94983.13;;;7.05;98.25
6132;BME280;3097;42.692;23.278;2023-03-04T01:24:29;95007.16;;;7.24;98.05
6132;BME280;3097;42.692;23.278;2023-03-04T01:26:54;94992.75;;;7.10;97.39
6132;BME280;3097;42.692;23.278;2023-03-04T01:29:20;94962.00;;;6.90;97.48
6132;BME280;3097;42.692;23.278;2023-03-04T01:31:45;94997.69;;;7.18;97.33
6132;BME280;3097;42.692;23.278;2023-03-04T01:34:11;94998.69;;;7.17;97.47
6132;BME280;3097;42.692;23.278;2023-03-04T01:36:36;94998.88;;;7.15;97.19
6132;BME280;3097;42.692;23.278;2023-03-04T01:39:02;94969.50;;;6.98;97.17
6132;BME280;3097;42.692;23.278;2023-03-04T01:41:28;94982.94;;;7.13;97.01
6132;BME280;3097;42.692;23.278;2023-03-04T01:43:55;94985.25;;;7.08;96.90
6132;BME280;3097;42.692;23.278;2023-03-04T01:46:22;94937.94;;;6.84;96.79
6132;BME280;3097;42.692;23.278;2023-03-04T01:48:48;94972.06;;;7.11;96.67
6132;BME280;3097;42.692;23.278;2023-03-04T01:51:16;94974.63;;;6.98;96.43
6132;BME280;3097;42.692;23.278;2023-03-04T01:53:43;94976.59;;;6.83;96.81
6132;BME280;3097;42.692;23.278;2023-03-04T01:58:40;94982.69;;;6.88;96.72
6132;BME280;3097;42.692;23.278;2023-03-04T02:01:05;94977.38;;;6.90;96.50
6132;BME280;3097;42.692;23.278;2023-03-04T02:03:31;94974.63;;;6.98;96.46
6132;BME280;3097;42.692;23.278;2023-03-04T02:05:56;94978.78;;;6.99;96.11
6132;BME280;3097;42.692;23.278;2023-03-04T02:08:23;94973.06;;;6.90;96.54
6132;BME280;3097;42.692;23.278;2023-03-04T02:10:50;94974.59;;;6.85;96.72
6132;BME280;3097;42.692;23.278;2023-03-04T02:13:16;94974.22;;;6.88;96.80
6132;BME280;3097;42.692;23.278;2023-03-04T02:15:43;94968.31;;;6.94;96.56
6132;BME280;3097;42.692;23.278;2023-03-04T02:18:21;94974.59;;;6.85;96.87
6132;BME280;3097;42.692;23.278;2023-03-04T02:26:14;94968.50;;;6.86;96.66
6132;BME280;3097;42.692;23.278;2023-03-04T02:28:40;94952.94;;;6.81;96.67
6132;BME280;3097;42.692;23.278;2023-03-04T02:31:13;94962.59;;;6.85;96.92
6132;BME280;3097;42.692;23.278;2023-03-04T02:33:44;94926.88;;;6.57;96.88
6132;BME280;3097;42.692;23.278;2023-03-04T02:36:10;94963.19;;;6.81;96.75
6132;BME280;3097;42.692;23.278;2023-03-04T02:38:35;94965.13;;;6.79;97.14
6132;BME280;3097;42.692;23.278;2023-03-04T02:41:01;94964.16;;;6.86;96.91
6132;BME280;3097;42.692;23.278;2023-03-04T02:43:27;94960.81;;;6.92;96.68
6132;BME280;3097;42.692;23.278;2023-03-04T02:45:52;94962.00;;;6.90;96.42
6132;BME280;3097;42.692;23.278;2023-03-04T02:48:22;94935.00;;;6.74;96.55
6132;BME280;3097;42.692;23.278;2023-03-04T02:50:52;94945.44;;;6.86;96.21
6132;BME280;3097;42.692;23.278;2023-03-04T02:53:18;94941.09;;;6.80;96.32
6132;BME280;3097;42.692;23.278;2023-03-04T02:55:45;94945.06;;;6.76;96.77
6132;BME280;3097;42.692;23.278;2023-03-04T02:58:29;94880.56;;;6.26;96.87
6132;BME280;3097;42.692;23.278;2023-03-04T03:03:29;94950.13;;;6.63;96.67
6132;BME280;3097;42.692;23.278;2023-03-04T03:05:55;94949.34;;;6.62;96.62
6132;BME280;3097;42.692;23.278;2023-03-04T03:08:20;94955.25;;;6.49;97.32
6132;BME280;3097;42.692;23.278;2023-03-04T03:10:46;94954.09;;;6.58;96.87
6132;BME280;3097;42.692;23.278;2023-03-04T03:13:11;94953.28;;;6.51;96.95
6132;BME280;3097;42.692;23.278;2023-03-04T03:15:36;94957.81;;;6.63;96.49
6132;BME280;3097;42.692;23.278;2023-03-04T03:18:09;94963.91;;;6.61;96.49
6132;BME280;3097;42.692;23.278;2023-03-04T03:20:35;94950.72;;;6.51;96.51
6132;BME280;3097;42.692;23.278;2023-03-04T03:23:00;94959.56;;;6.42;96.99
6132;BME280;3097;42.692;23.278;2023-03-04T03:25:26;94942.59;;;6.35;96.96
6132;BME280;3097;42.692;23.278;2023-03-04T03:27:51;94957.19;;;6.47;96.54
6132;BME280;3097;42.692;23.278;2023-03-04T03:30:17;94923.25;;;6.19;96.90
6132;BME280;3097;42.692;23.278;2023-03-04T03:32:42;94956.78;;;6.37;97.35
6132;BME280;3097;42.692;23.278;2023-03-04T03:35:08;94949.63;;;6.19;97.83
6132;BME280;3097;42.692;23.278;2023-03-04T03:37:34;94960.25;;;6.16;98.19
6132;BME280;3097;42.692;23.278;2023-03-04T03:39:59;94951.03;;;6.15;98.27
6132;BME280;3097;42.692;23.278;2023-03-04T03:42:25;94941.75;;;6.08;98.12
6132;BME280;3097;42.692;23.278;2023-03-04T03:44:50;94945.47;;;6.12;98.04
6132;BME280;3097;42.692;23.278;2023-03-04T03:47:16;94951.19;;;6.07;97.64
6132;BME280;3097;42.692;23.278;2023-03-04T03:49:41;94929.09;;;6.00;97.29
6132;BME280;3097;42.692;23.278;2023-03-04T03:52:07;94945.09;;;6.15;96.98
6132;BME280;3097;42.692;23.278;2023-03-04T03:54:33;94926.31;;;5.95;96.45
6132;BME280;3097;42.692;23.278;2023-03-04T03:56:58;94946.41;;;5.98;97.03
6132;BME280;3097;42.692;23.278;2023-03-04T03:59:24;94942.56;;;5.80;97.59
6132;BME280;3097;42.692;23.278;2023-03-04T04:01:49;94927.00;;;5.75;97.73
6132;BME280;3097;42.692;23.278;2023-03-04T04:04:15;94938.47;;;5.86;96.90
6132;BME280;3097;42.692;23.278;2023-03-04T04:06:40;94937.59;;;5.72;97.45
6132;BME280;3097;42.692;23.278;2023-03-04T04:09:06;94938.03;;;5.76;97.22
6132;BME280;3097;42.692;23.278;2023-03-04T04:11:31;94934.47;;;5.70;97.53
6132;BME280;3097;42.692;23.278;2023-03-04T04:13:57;94936.00;;;5.71;97.61
6132;BME280;3097;42.692;23.278;2023-03-04T04:16:22;94924.59;;;5.67;97.46
6132;BME280;3097;42.692;23.278;2023-03-04T04:18:48;94898.06;;;5.34;97.99
6132;BME280;3097;42.692;23.278;2023-03-04T04:21:14;94909.03;;;5.56;97.11
6132;BME280;3097;42.692;23.278;2023-03-04T04:23:39;94903.97;;;5.34;97.23
6132;BME280;3097;42.692;23.278;2023-03-04T04:26:05;94931.59;;;5.52;97.43
6132;BME280;3097;42.692;23.278;2023-03-04T04:28:31;94917.94;;;5.32;97.70
6132;BME280;3097;42.692;23.278;2023-03-04T04:30:56;94936.50;;;5.47;97.04
6132;BME280;3097;42.692;23.278;2023-03-04T04:33:21;94938.28;;;5.53;96.27
6132;BME280;3097;42.692;23.278;2023-03-04T04:35:47;94930.56;;;5.40;96.53
6132;BME280;3097;42.692;23.278;2023-03-04T04:38:12;94933.56;;;5.50;96.48
6132;BME280;3097;42.692;23.278;2023-03-04T04:40:38;94938.72;;;5.29;97.13
6132;BME280;3097;42.692;23.278;2023-03-04T04:43:03;94936.94;;;5.23;98.15
6132;BME280;3097;42.692;23.278;2023-03-04T04:45:29;94940.38;;;5.09;98.14
6132;BME280;3097;42.692;23.278;2023-03-04T04:47:54;94923.59;;;4.99;98.42
6132;BME280;3097;42.692;23.278;2023-03-04T04:50:22;94920.53;;;5.11;98.07
6132;BME280;3097;42.692;23.278;2023-03-04T04:52:48;94939.13;;;5.26;97.58
6132;BME280;3097;42.692;23.278;2023-03-04T04:55:14;94905.06;;;5.19;96.31
6132;BME280;3097;42.692;23.278;2023-03-04T04:57:39;94938.34;;;5.25;96.15
6132;BME280;3097;42.692;23.278;2023-03-04T05:00:05;94948.69;;;5.17;96.76
6132;BME280;3097;42.692;23.278;2023-03-04T05:02:32;94938.78;;;5.07;96.96
6132;BME280;3097;42.692;23.278;2023-03-04T05:05:04;94958.94;;;5.24;96.19
6132;BME280;3097;42.692;23.278;2023-03-04T05:07:30;94942.91;;;5.09;96.31
6132;BME280;3097;42.692;23.278;2023-03-04T05:09:56;94963.91;;;5.04;97.11
6132;BME280;3097;42.692;23.278;2023-03-04T05:12:21;94963.91;;;5.04;97.46
6132;BME280;3097;42.692;23.278;2023-03-04T05:14:47;94963.06;;;4.97;97.87
6132;BME280;3097;42.692;23.278;2023-03-04T05:17:12;94966.09;;;5.07;97.69
6132;BME280;3097;42.692;23.278;2023-03-04T05:19:38;94968.56;;;5.22;97.09
6132;BME280;3097;42.692;23.278;2023-03-04T05:22:03;94964.75;;;5.11;97.40
6132;BME280;3097;42.692;23.278;2023-03-04T05:24:28;94959.31;;;5.21;96.87
6132;BME280;3097;42.692;23.278;2023-03-04T05:26:54;94970.81;;;5.31;96.07
6132;BME280;3097;42.692;23.278;2023-03-04T05:29:19;94975.91;;;5.31;96.15
6132;BME280;3097;42.692;23.278;2023-03-04T05:31:45;94974.72;;;5.34;96.55
6132;BME280;3097;42.692;23.278;2023-03-04T05:34:10;94979.47;;;5.37;97.06
6132;BME280;3097;42.692;23.278;2023-03-04T05:36:35;94960.81;;;5.36;96.13
6132;BME280;3097;42.692;23.278;2023-03-04T05:39:01;94954.09;;;5.35;96.73
6132;BME280;3097;42.692;23.278;2023-03-04T05:41:26;94976.78;;;5.45;97.23
6132;BME280;3097;42.692;23.278;2023-03-04T05:43:52;94980.94;;;5.46;97.67
6132;BME280;3097;42.692;23.278;2023-03-04T05:46:17;94977.28;;;5.62;97.37
6132;BME280;3097;42.692;23.278;2023-03-04T05:48:43;94974.56;;;5.63;97.62
6132;BME280;3097;42.692;23.278;2023-03-04T05:51:09;94983.41;;;5.67;98.05
6132;BME280;3097;42.692;23.278;2023-03-04T05:53:35;94983.63;;;5.72;97.68
6132;BME280;3097;42.692;23.278;2023-03-04T05:56:09;94980.84;;;5.67;97.58
6132;BME280;3097;42.692;23.278;2023-03-04T05:58:35;94958.00;;;5.59;97.37
6132;BME280;3097;42.692;23.278;2023-03-04T06:01:00;94949.38;;;5.67;96.55
6132;BME280;3097;42.692;23.278;2023-03-04T06:03:26;94993.84;;;5.94;96.80
6132;BME280;3097;42.692;23.278;2023-03-04T06:05:52;94992.34;;;6.12;96.33
6132;BME280;3097;42.692;23.278;2023-03-04T06:08:17;94997.28;;;6.14;96.06
6132;BME280;3097;42.692;23.278;2023-03-04T06:10:43;95005.72;;;6.08;96.46
6132;BME280;3097;42.692;23.278;2023-03-04T06:13:09;95001.91;;;5.97;96.91
6132;BME280;3097;42.692;23.278;2023-03-04T06:15:34;94997.28;;;6.14;96.89
6132;BME280;3097;42.692;23.278;2023-03-04T06:18:00;94989.44;;;6.22;96.16
6132;BME280;3097;42.692;23.278;2023-03-04T06:20:25;94999.25;;;6.25;96.52
6132;BME280;3097;42.692;23.278;2023-03-04T06:22:51;94991.81;;;6.30;96.29
6132;BME280;3097;42.692;23.278;2023-03-04T06:25:16;94989.47;;;6.35;96.63
6132;BME280;3097;42.692;23.278;2023-03-04T06:27:42;94980.06;;;6.49;95.60
6132;BME280;3097;42.692;23.278;2023-03-04T06:30:09;95009.66;;;6.65;95.57
6132;BME280;3097;42.692;23.278;2023-03-04T06:32:35;94992.47;;;6.45;96.06
6132;BME280;3097;42.692;23.278;2023-03-04T06:35:00;95006.91;;;6.73;96.03
6132;BME280;3097;42.692;23.278;2023-03-04T06:37:25;95001.81;;;6.86;96.25
6132;BME280;3097;42.692;23.278;2023-03-04T06:39:51;95003.00;;;6.96;95.97
6132;BME280;3097;42.692;23.278;2023-03-04T06:42:16;94990.19;;;6.96;96.05
6132;BME280;3097;42.692;23.278;2023-03-04T06:44:42;94996.31;;;7.09;95.39
6132;BME280;3097;42.692;23.278;2023-03-04T06:47:07;95005.81;;;7.21;95.92
6132;BME280;3097;42.692;23.278;2023-03-04T06:49:33;95006.78;;;7.33;95.17
6132;BME280;3097;42.692;23.278;2023-03-04T06:51:58;95005.38;;;7.31;95.21
6132;BME280;3097;42.692;23.278;2023-03-04T06:54:23;95003.84;;;7.36;95.11
6132;BME280;3097;42.692;23.278;2023-03-04T06:56:49;95013.88;;;7.45;94.92
6132;BME280;3097;42.692;23.278;2023-03-04T06:59:14;95011.31;;;7.45;94.45
6132;BME280;3097;42.692;23.278;2023-03-04T07:01:40;94980.94;;;7.28;93.68
6132;BME280;3097;42.692;23.278;2023-03-04T07:04:05;95019.22;;;7.50;93.65
6132;BME280;3097;42.692;23.278;2023-03-04T07:06:31;95015.66;;;7.44;92.59
6132;BME280;3097;42.692;23.278;2023-03-04T07:08:57;95015.25;;;7.47;90.50
6132;BME280;3097;42.692;23.278;2023-03-04T07:11:23;95004.19;;;7.07;91.24
6132;BME280;3097;42.692;23.278;2023-03-04T07:13:49;95021.94;;;7.02;92.49
6132;BME280;3097;42.692;23.278;2023-03-04T07:16:20;95021.16;;;7.15;92.91
6132;BME280;3097;42.692;23.278;2023-03-04T07:18:46;95020.59;;;7.19;93.75
6132;BME280;3097;42.692;23.278;2023-03-04T07:21:13;95020.41;;;7.27;94.32
6132;BME280;3097;42.692;23.278;2023-03-04T07:23:39;95028.69;;;7.43;94.02
6132;BME280;3097;42.692;23.278;2023-03-04T07:26:05;95028.28;;;7.59;93.24
6132;BME280;3097;42.692;23.278;2023-03-04T07:28:31;95029.84;;;7.60;92.42
6132;BME280;3097;42.692;23.278;2023-03-04T07:30:56;95029.47;;;7.56;92.51
6132;BME280;3097;42.692;23.278;2023-03-04T07:33:22;95020.94;;;7.75;91.87
6132;BME280;3097;42.692;23.278;2023-03-04T07:35:47;95018.78;;;7.72;90.73
6132;BME280;3097;42.692;23.278;2023-03-04T07:38:13;95021.72;;;7.83;90.44
6132;BME280;3097;42.692;23.278;2023-03-04T07:40:38;95008.09;;;7.89;90.65
6132;BME280;3097;42.692;23.278;2023-03-04T07:43:04;95021.28;;;8.05;89.01
6132;BME280;3097;42.692;23.278;2023-03-04T07:45:29;95013.41;;;8.00;87.97
6132;BME280;3097;42.692;23.278;2023-03-04T07:47:57;95017.53;;;8.01;86.48
6132;BME280;3097;42.692;23.278;2023-03-04T07:50:22;95011.81;;;7.99;86.03
6132;BME280;3097;42.692;23.278;2023-03-04T07:52:48;95018.38;;;7.89;86.96
6132;BME280;3097;42.692;23.278;2023-03-04T07:55:17;95017.53;;;8.01;87.91
6132;BME280;3097;42.692;23.278;2023-03-04T07:57:44;95016.75;;;8.07;88.01
6132;BME280;3097;42.692;23.278;2023-03-04T08:00:11;95010.97;;;8.32;96.31
6132;BME280;3097;42.692;23.278;2023-03-04T08:02:37;94993.75;;;8.39;95.10
6132;BME280;3097;42.692;23.278;2023-03-04T08:05:03;95002.56;;;8.56;92.02
6132;BME280;3097;42.692;23.278;2023-03-04T08:07:29;94974.94;;;8.45;89.49
6132;BME280;3097;42.692;23.278;2023-03-04T08:09:54;95002.91;;;8.66;87.48
6132;BME280;3097;42.692;23.278;2023-03-04T08:12:19;95009.25;;;8.57;85.05
6132;BME280;3097;42.692;23.278;2023-03-04T08:14:45;95008.72;;;8.48;85.33
6132;BME280;3097;42.692;23.278;2023-03-04T08:17:12;94967.50;;;8.24;85.98
6132;BME280;3097;42.692;23.278;2023-03-04T08:19:39;95008.34;;;8.45;85.68
6132;BME280;3097;42.692;23.278;2023-03-04T08:22:05;95009.72;;;8.47;85.93
6132;BME280;3097;42.692;23.278;2023-03-04T08:24:31;95014.88;;;8.41;85.03
6132;BME280;3097;42.692;23.278;2023-03-04T08:26:56;95011.13;;;8.37;85.70
6132;BME280;3097;42.692;23.278;2023-03-04T08:29:23;95009.38;;;8.31;85.57
6132;BME280;3097;42.692;23.278;2023-03-04T08:31:51;94999.28;;;8.29;85.87
6132;BME280;3097;42.692;23.278;2023-03-04T08:34:18;95001.84;;;8.36;86.06
6132;BME280;3097;42.692;23.278;2023-03-04T08:36:44;95009.19;;;8.32;86.13
6132;BME280;3097;42.692;23.278;2023-03-04T08:39:13;95000.47;;;8.40;85.98
6132;BME280;3097;42.692;23.278;2023-03-04T08:41:39;95003.22;;;8.38;85.55
6132;BME280;3097;42.692;23.278;2023-03-04T08:44:05;94981.72;;;8.33;85.89
6132;BME280;3097;42.692;23.278;2023-03-04T08:46:32;95002.00;;;8.47;85.35
6132;BME280;3097;42.692;23.278;2023-03-04T08:48:58;94976.31;;;8.47;84.54
6132;BME280;3097;42.692;23.278;2023-03-04T08:51:23;94992.50;;;8.54;84.59
6132;BME280;3097;42.692;23.278;2023-03-04T08:53:49;94999.75;;;8.64;83.99
6132;BME280;3097;42.692;23.278;2023-03-04T08:56:14;94997.53;;;8.74;84.11
6132;BME280;3097;42.692;23.278;2023-03-04T08:58:41;94995.66;;;8.88;84.39
6132;BME280;3097;42.692;23.278;2023-03-04T09:01:08;95001.28;;;9.03;83.45
6132;BME280;3097;42.692;23.278;2023-03-04T09:03:34;94971.66;;;9.01;83.20
6132;BME280;3097;42.692;23.278;2023-03-04T09:06:01;94994.78;;;9.32;82.40
6132;BME280;3097;42.692;23.278;2023-03-04T09:08:27;94983.47;;;9.33;80.53
6132;BME280;3097;42.692;23.278;2023-03-04T09:10:53;94984.97;;;9.65;81.34
6132;BME280;3097;42.692;23.278;2023-03-04T09:13:20;94957.50;;;9.59;79.24
6132;BME280;3097;42.692;23.278;2023-03-04T09:15:47;94981.84;;;10.00;79.67
6132;BME280;3097;42.692;23.278;2023-03-04T09:18:14;94984.97;;;10.27;80.34
6132;BME280;3097;42.692;23.278;2023-03-04T09:20:40;94982.59;;;10.43;79.31
6132;BME280;3097;42.692;23.278;2023-03-04T09:23:05;94981.31;;;10.64;79.03
6132;BME280;3097;42.692;23.278;2023-03-04T09:25:31;94986.28;;;10.77;77.67
6132;BME280;3097;42.692;23.278;2023-03-04T09:27:57;94987.00;;;10.84;76.18
6132;BME280;3097;42.692;23.278;2023-03-04T09:30:22;94981.84;;;10.84;74.45
6132;BME280;3097;42.692;23.278;2023-03-04T09:32:47;94980.66;;;10.69;74.49
6132;BME280;3097;42.692;23.278;2023-03-04T09:35:13;94977.06;;;10.70;75.12
6132;BME280;3097;42.692;23.278;2023-03-04T09:37:38;94976.28;;;10.69;75.47
6132;BME280;3097;42.692;23.278;2023-03-04T09:40:04;94969.34;;;10.70;75.16
6132;BME280;3097;42.692;23.278;2023-03-04T09:42:45;94970.91;;;10.71;76.79
6132;BME280;3097;42.692;23.278;2023-03-04T09:45:16;94970.13;;;10.70;76.35
6132;BME280;3097;42.692;23.278;2023-03-04T09:47:43;94970.91;;;10.71;75.15
6132;BME280;3097;42.692;23.278;2023-03-04T09:50:11;94947.44;;;10.61;75.28
6132;BME280;3097;42.692;23.278;2023-03-04T09:55:24;94960.72;;;10.76;75.60
6132;BME280;3097;42.692;23.278;2023-03-04T09:57:55;94962.00;;;10.85;75.55
6132;BME280;3097;42.692;23.278;2023-03-04T10:00:32;94959.41;;;10.85;74.56
6132;BME280;3097;42.692;23.278;2023-03-04T10:05:54;94949.03;;;10.62;75.55
6132;BME280;3097;42.692;23.278;2023-03-04T10:11:13;94953.88;;;10.70;75.02
6132;BME280;3097;42.692;23.278;2023-03-04T10:13:56;94938.63;;;10.68;74.99
6132;BME280;3097;42.692;23.278;2023-03-04T10:16:37;94927.97;;;10.65;74.26
6132;BME280;3097;42.692;23.278;2023-03-04T10:21:56;94922.25;;;10.63;74.87
6132;BME280;3097;42.692;23.278;2023-03-04T10:24:27;94936.66;;;10.82;75.56
6132;BME280;3097;42.692;23.278;2023-03-04T10:27:03;94926.16;;;10.95;76.18
6132;BME280;3097;42.692;23.278;2023-03-04T10:29:31;94933.09;;;11.06;73.99
6132;BME280;3097;42.692;23.278;2023-03-04T10:31:57;94916.28;;;11.04;74.42
6132;BME280;3097;42.692;23.278;2023-03-04T10:34:23;94895.31;;;11.00;73.23
6132;BME280;3097;42.692;23.278;2023-03-04T10:36:58;94924.03;;;11.15;72.26
6132;BME280;3097;42.692;23.278;2023-03-04T10:39:31;94919.19;;;11.07;72.63
6132;BME280;3097;42.692;23.278;2023-03-04T10:42:05;94908.19;;;11.00;73.06
6132;BME280;3097;42.692;23.278;2023-03-04T10:44:33;94910.53;;;10.90;73.57
6132;BME280;3097;42.692;23.278;2023-03-04T10:46:59;94855.69;;;10.60;74.62
6132;BME280;3097;42.692;23.278;2023-03-04T10:49:27;94867.44;;;10.56;74.17
6132;BME280;3097;42.692;23.278;2023-03-04T10:52:18;94903.31;;;10.69;74.12
6132;BME280;3097;42.692;23.278;2023-03-04T10:54:49;94898.63;;;10.66;75.70
6132;BME280;3097;42.692;23.278;2023-03-04T10:57:20;94888.72;;;10.63;75.68
6132;BME280;3097;42.692;23.278;2023-03-04T10:59:54;94857.75;;;10.39;75.33
6132;BME280;3097;42.692;23.278;2023-03-04T11:02:21;94881.78;;;10.63;75.46
6132;BME280;3097;42.692;23.278;2023-03-04T11:07:18;94876.22;;;10.36;74.61
6132;BME280;3097;42.692;23.278;2023-03-04T11:09:44;94872.97;;;10.29;76.01
6132;BME280;3097;42.692;23.278;2023-03-04T11:12:12;94861.97;;;10.22;76.92
6132;BME280;3097;42.692;23.278;2023-03-04T11:14:47;94862.41;;;10.31;77.53
6132;BME280;3097;42.692;23.278;2023-03-04T11:17:25;94831.19;;;10.09;76.92
6132;BME280;3097;42.692;23.278;2023-03-04T11:22:57;94849.91;;;10.34;77.74
6132;BME280;3097;42.692;23.278;2023-03-04T11:25:32;94807.63;;;10.24;77.27
6132;BME280;3097;42.692;23.278;2023-03-04T11:28:27;94839.97;;;10.50;76.62
6132;BME280;3097;42.692;23.278;2023-03-04T11:31:00;94841.44;;;10.57;76.52
6132;BME280;3097;42.692;23.278;2023-03-04T11:36:39;94832.47;;;10.60;76.08
6132;BME280;3097;42.692;23.278;2023-03-04T11:39:40;94812.03;;;10.46;75.51
6132;BME280;3097;42.692;23.278;2023-03-04T11:42:14;94824.97;;;10.58;75.80
6132;BME280;3097;42.692;23.278;2023-03-04T11:44:41;94815.34;;;10.65;76.12
6132;BME280;3097;42.692;23.278;2023-03-04T11:55:33;94809.97;;;10.67;75.83
6132;BME280;3097;42.692;23.278;2023-03-04T11:58:42;94806.50;;;10.73;76.64
6132;BME280;3097;42.692;23.278;2023-03-04T12:01:14;94781.25;;;10.63;76.37
6132;BME280;3097;42.692;23.278;2023-03-04T12:09:52;94798.50;;;10.98;75.16
6132;BME280;3097;42.692;23.278;2023-03-04T12:18:10;94791.97;;;11.30;75.13
6132;BME280;3097;42.692;23.278;2023-03-04T12:31:33;94767.44;;;11.16;74.05
6132;BME280;3097;42.692;23.278;2023-03-04T12:39:50;94770.94;;;11.10;73.72
6132;BME280;3097;42.692;23.278;2023-03-04T12:42:34;94767.56;;;11.09;74.03
6132;BME280;3097;42.692;23.278;2023-03-04T12:53:20;94686.78;;;10.34;73.80
6132;BME280;3097;42.692;23.278;2023-03-04T12:55:51;94744.94;;;10.76;74.76
6132;BME280;3097;42.692;23.278;2023-03-04T12:58:28;94732.72;;;10.72;74.71
6132;BME280;3097;42.692;23.278;2023-03-04T13:01:23;94747.66;;;10.81;74.49
6132;BME280;3097;42.692;23.278;2023-03-04T13:04:14;94738.91;;;10.82;74.27
6132;BME280;3097;42.692;23.278;2023-03-04T13:06:42;94734.63;;;10.88;73.54
6132;BME280;3097;42.692;23.278;2023-03-04T13:09:31;94730.59;;;10.80;74.08
6132;BME280;3097;42.692;23.278;2023-03-04T13:17:43;94724.09;;;10.90;73.59
6132;BME280;3097;42.692;23.278;2023-03-04T13:20:38;94719.91;;;11.00;73.40
6132;BME280;3097;42.692;23.278;2023-03-04T13:23:20;94719.91;;;11.00;72.90
6132;BME280;3097;42.692;23.278;2023-03-04T13:25:48;94714.66;;;10.95;73.17
6132;BME280;3097;42.692;23.278;2023-03-04T13:28:34;94710.50;;;10.94;74.00
6132;BME280;3097;42.692;23.278;2023-03-04T13:31:10;94687.69;;;10.74;74.25
6132;BME280;3097;42.692;23.278;2023-03-04T13:36:06;94686.31;;;10.83;74.89
6132;BME280;3097;42.692;23.278;2023-03-04T13:39:41;94710.59;;;10.99;73.59
6132;BME280;3097;42.692;23.278;2023-03-04T13:41:47;94688.81;;;10.67;73.18
6132;BME280;3097;42.692;23.278;2023-03-04T13:44:55;94707.06;;;10.89;73.38
6132;BME280;3097;42.692;23.278;2023-03-04T13:47:26;94713.13;;;10.82;73.44
6132;BME280;3097;42.692;23.278;2023-03-04T13:52:48;94702.38;;;10.74;73.93
6132;BME280;3097;42.692;23.278;2023-03-04T13:55:33;94700.78;;;10.73;75.14
6132;BME280;3097;42.692;23.278;2023-03-04T13:57:59;94684.75;;;10.71;75.32
6132;BME280;3097;42.692;23.278;2023-03-04T14:00:27;94691.94;;;10.80;75.33
6132;BME280;3097;42.692;23.278;2023-03-04T14:02:53;94683.97;;;10.70;75.38
6132;BME280;3097;42.692;23.278;2023-03-04T14:05:18;94683.75;;;10.72;76.10
6132;BME280;3097;42.692;23.278;2023-03-04T14:07:44;94692.50;;;10.71;75.86
6132;BME280;3097;42.692;23.278;2023-03-04T14:12:54;94687.91;;;10.73;75.46
6132;BME280;3097;42.692;23.278;2023-03-04T14:15:39;94684.44;;;10.67;75.84
6132;BME280;3097;42.692;23.278;2023-03-04T14:18:04;94678.50;;;10.67;75.95
6132;BME280;3097;42.692;23.278;2023-03-04T14:20:33;94675.44;;;10.70;75.63
6132;BME280;3097;42.692;23.278;2023-03-04T14:23:00;94679.16;;;10.74;75.36
6132;BME280;3097;42.692;23.278;2023-03-04T14:25:31;94677.91;;;10.76;75.61
6132;BME280;3097;42.692;23.278;2023-03-04T14:28:10;94677.13;;;10.76;75.51
6132;BME280;3097;42.692;23.278;2023-03-04T14:30:37;94671.75;;;10.77;75.76
6132;BME280;3097;42.692;23.278;2023-03-04T14:33:06;94666.38;;;10.79;76.73
6132;BME280;3097;42.692;23.278;2023-03-04T14:35:32;94665.91;;;10.82;76.13
6132;BME280;3097;42.692;23.278;2023-03-04T14:38:18;94662.88;;;10.85;76.13
6132;BME280;3097;42.692;23.278;2023-03-04T14:40:49;94648.75;;;10.76;75.80
6132;BME280;3097;42.692;23.278;2023-03-04T14:43:19;94665.00;;;10.88;76.67
6132;BME280;3097;42.692;23.278;2023-03-04T14:45:51;94660.50;;;10.95;76.68
6132;BME280;3097;42.692;23.278;2023-03-04T14:48:31;94618.16;;;10.68;76.27
6132;BME280;3097;42.692;23.278;2023-03-04T14:50:59;94656.34;;;10.94;75.79
6132;BME280;3097;42.692;23.278;2023-03-04T14:53:27;94657.69;;;10.97;75.50